createdAt,value
2023-03-18T00:02:11.143Z,9.29
2023-03-18T00:04:37.728Z,9.28
2023-03-18T00:07:04.281Z,9.31
2023-03-18T00:09:31.164Z,9.31
2023-03-18T00:11:57.999Z,9.32
2023-03-18T00:14:24.659Z,9.42
2023-03-18T00:16:51.178Z,9.46
2023-03-18T00:19:18.609Z,9.53
2023-03-18T00:21:45.327Z,9.50
2023-03-18T00:24:12.321Z,9.51
2023-03-18T00:26:39.358Z,9.47
2023-03-18T00:29:05.911Z,9.52
2023-03-18T00:31:32.473Z,9.61
2023-03-18T00:33:59.118Z,9.65
2023-03-18T00:36:26.379Z,9.73
2023-03-18T00:39:03.126Z,9.69
2023-03-18T00:41:32.983Z,9.73
2023-03-18T00:43:59.699Z,9.75
2023-03-18T00:46:29.308Z,9.72
2023-03-18T00:48:59.982Z,9.69
2023-03-18T00:51:29.399Z,9.62
2023-03-18T00:53:58.756Z,9.62
2023-03-18T00:56:28.124Z,9.63
2023-03-18T00:58:55.059Z,9.63
2023-03-18T01:01:22.403Z,9.65
2023-03-18T01:03:52.348Z,9.68
2023-03-18T01:06:23.705Z,9.71
2023-03-18T01:08:50.748Z,9.68
2023-03-18T01:11:18.186Z,9.73
2023-03-18T01:13:46.046Z,9.69
2023-03-18T01:16:13.425Z,9.63
2023-03-18T01:18:41.554Z,9.63
2023-03-18T01:21:09.393Z,9.63
2023-03-18T01:23:36.983Z,9.61
2023-03-18T01:26:04.194Z,9.58
2023-03-18T01:28:30.681Z,9.55
2023-03-18T01:30:57.704Z,9.60
2023-03-18T01:33:25.819Z,9.65
2023-03-18T01:35:58.532Z,9.56
2023-03-18T01:38:26.523Z,9.57
2023-03-18T01:40:54.579Z,9.48
2023-03-18T01:43:24.870Z,9.50
2023-03-18T01:45:54.023Z,9.55
2023-03-18T01:48:27.396Z,9.59
2023-03-18T01:50:59.318Z,9.61
2023-03-18T01:53:29.828Z,9.64
2023-03-18T01:55:57.747Z,9.72
2023-03-18T01:58:28.401Z,9.76
2023-03-18T02:00:59.666Z,9.78
2023-03-18T02:03:27.560Z,9.83
2023-03-18T02:05:54.768Z,9.88
2023-03-18T02:08:21.618Z,9.89
2023-03-18T02:10:49.209Z,9.95
2023-03-18T02:13:16.966Z,9.97
2023-03-18T02:16:04.589Z,9.98
2023-03-18T02:18:33.777Z,9.96
2023-03-18T02:21:42.524Z,9.94
2023-03-18T02:24:27.636Z,9.93
2023-03-18T02:27:00.294Z,9.94
2023-03-18T02:29:29.375Z,9.94
2023-03-18T02:31:56.356Z,9.91
2023-03-18T02:34:25.411Z,9.89
2023-03-18T02:36:52.205Z,9.94
2023-03-18T02:39:18.780Z,9.91
2023-03-18T02:41:45.871Z,9.89
2023-03-18T02:44:12.999Z,9.92
2023-03-18T02:46:59.309Z,9.92
2023-03-18T02:49:27.631Z,9.93
2023-03-18T02:51:54.563Z,9.95
2023-03-18T02:54:25.046Z,9.92
2023-03-18T02:56:52.665Z,9.93
2023-03-18T02:59:20.291Z,9.94
2023-03-18T03:01:48.776Z,9.93
2023-03-18T03:04:16.150Z,9.94
2023-03-18T03:06:43.719Z,9.93
2023-03-18T03:09:11.900Z,9.92
2023-03-18T03:11:38.444Z,9.89
2023-03-18T03:14:05.317Z,9.89
2023-03-18T03:16:31.973Z,9.86
2023-03-18T03:18:58.929Z,9.84
2023-03-18T03:21:25.477Z,9.79
2023-03-18T03:23:52.254Z,9.78
2023-03-18T03:26:19.330Z,9.72
2023-03-18T03:28:46.451Z,9.66
2023-03-18T03:31:13.222Z,9.57
2023-03-18T03:33:41.640Z,9.56
2023-03-18T03:36:09.195Z,9.46
2023-03-18T03:38:35.702Z,9.45
2023-03-18T03:41:02.311Z,9.43
2023-03-18T03:43:28.883Z,9.37
2023-03-18T03:45:55.767Z,9.32
2023-03-18T03:48:22.437Z,9.30
2023-03-18T03:50:50.841Z,9.29
2023-03-18T03:53:17.401Z,9.26
2023-03-18T03:55:44.726Z,9.28
2023-03-18T03:58:11.307Z,9.26
2023-03-18T04:00:38.242Z,9.24
2023-03-18T04:03:04.812Z,9.24
2023-03-18T04:05:31.413Z,9.22
2023-03-18T04:08:01.203Z,9.22
2023-03-18T04:10:28.337Z,9.23
2023-03-18T04:12:55.235Z,9.18
2023-03-18T04:15:22.153Z,9.16
2023-03-18T04:17:49.945Z,9.11
2023-03-18T04:20:17.497Z,9.10
2023-03-18T04:22:45.086Z,9.10
2023-03-18T04:25:12.630Z,9.10
2023-03-18T04:27:39.404Z,9.09
2023-03-18T04:30:08.217Z,9.06
2023-03-18T04:32:35.044Z,9.05
2023-03-18T04:35:01.651Z,9.03
2023-03-18T04:37:28.412Z,9.03
2023-03-18T04:39:55.492Z,8.99
2023-03-18T04:42:22.003Z,8.99
2023-03-18T04:44:48.516Z,8.96
2023-03-18T04:47:15.433Z,8.95
2023-03-18T04:49:42.037Z,8.93
2023-03-18T04:52:08.616Z,8.93
2023-03-18T04:54:37.240Z,8.94
2023-03-18T04:57:05.963Z,8.97
2023-03-18T04:59:32.600Z,8.99
2023-03-18T05:01:59.739Z,9.03
2023-03-18T05:04:26.363Z,9.05
2023-03-18T05:06:53.289Z,9.10
2023-03-18T05:09:19.837Z,9.12
2023-03-18T05:11:46.370Z,9.17
2023-03-18T05:14:13.744Z,9.22
2023-03-18T05:16:40.339Z,9.22
2023-03-18T05:19:06.940Z,9.28
2023-03-18T05:21:33.441Z,9.29
2023-03-18T05:24:00.162Z,9.32
2023-03-18T05:26:27.055Z,9.35
2023-03-18T05:28:53.828Z,9.32
2023-03-18T05:31:20.624Z,9.32
2023-03-18T05:33:47.848Z,9.32
2023-03-18T05:36:14.696Z,9.31
2023-03-18T05:38:41.225Z,9.26
2023-03-18T05:41:08.176Z,9.20
2023-03-18T05:43:34.742Z,9.16
2023-03-18T05:46:01.305Z,9.04
2023-03-18T05:48:27.847Z,8.99
2023-03-18T05:50:54.397Z,8.95
2023-03-18T05:53:21.099Z,8.92
2023-03-18T05:55:48.812Z,8.89
2023-03-18T05:58:15.339Z,8.87
2023-03-18T06:00:41.920Z,8.87
2023-03-18T06:03:08.925Z,8.82
2023-03-18T06:05:35.926Z,8.75
2023-03-18T06:08:03.074Z,8.71
2023-03-18T06:10:30.000Z,8.70
2023-03-18T06:12:56.887Z,8.78
2023-03-18T06:15:24.368Z,8.89
2023-03-18T06:17:51.131Z,8.94
2023-03-18T06:20:19.522Z,8.99
2023-03-18T06:22:49.612Z,9.04
2023-03-18T06:25:18.944Z,9.01
2023-03-18T06:27:46.682Z,9.00
2023-03-18T06:30:14.353Z,9.04
2023-03-18T06:32:41.226Z,9.05
2023-03-18T06:35:08.439Z,9.03
2023-03-18T06:37:34.961Z,9.09
2023-03-18T06:40:01.682Z,9.09
2023-03-18T06:42:28.265Z,9.15
2023-03-18T06:44:54.894Z,9.16
2023-03-18T06:47:22.246Z,9.14
2023-03-18T06:49:49.706Z,9.18
2023-03-18T06:52:17.283Z,9.24
2023-03-18T06:54:44.553Z,9.25
2023-03-18T06:57:12.105Z,9.27
2023-03-18T06:59:39.368Z,9.34
2023-03-18T07:02:06.143Z,9.37
2023-03-18T07:04:33.880Z,9.50
2023-03-18T07:07:00.708Z,9.57
2023-03-18T07:09:28.193Z,9.58
2023-03-18T07:11:54.888Z,9.57
2023-03-18T07:14:21.642Z,9.61
2023-03-18T07:16:48.247Z,9.76
2023-03-18T07:19:16.202Z,9.76
2023-03-18T07:21:43.778Z,9.70
2023-03-18T07:24:11.369Z,9.77
2023-03-18T07:26:38.282Z,9.94
2023-03-18T07:29:05.673Z,10.06
2023-03-18T07:31:32.194Z,10.06
2023-03-18T07:33:59.237Z,10.21
2023-03-18T07:36:26.873Z,10.21
2023-03-18T07:38:53.503Z,10.29
2023-03-18T07:41:20.094Z,10.26
2023-03-18T07:43:46.714Z,10.33
2023-03-18T07:46:13.328Z,10.41
2023-03-18T07:48:39.932Z,10.62
2023-03-18T07:51:06.957Z,10.56
2023-03-18T07:53:34.053Z,10.63
2023-03-18T07:56:00.914Z,10.64
2023-03-18T07:58:27.574Z,10.62
2023-03-18T08:00:54.258Z,10.64
2023-03-18T08:03:21.107Z,10.63
2023-03-18T08:05:47.616Z,10.59
2023-03-18T08:08:14.160Z,10.66
2023-03-18T08:10:40.689Z,10.75
2023-03-18T08:13:07.258Z,10.88
2023-03-18T08:15:34.300Z,11.02
2023-03-18T08:18:01.191Z,11.27
2023-03-18T08:20:28.790Z,11.74
2023-03-18T08:22:56.062Z,12.37
2023-03-18T08:25:23.610Z,12.67
2023-03-18T08:27:50.746Z,12.57
2023-03-18T08:30:17.985Z,12.96
2023-03-18T08:32:44.761Z,13.20
2023-03-18T08:35:12.684Z,12.94
2023-03-18T08:37:39.367Z,13.36
2023-03-18T08:40:06.871Z,13.16
2023-03-18T08:42:33.381Z,13.53
2023-03-18T08:44:59.931Z,13.37
2023-03-18T08:47:27.444Z,13.02
2023-03-18T08:49:53.941Z,12.41
2023-03-18T08:52:20.490Z,12.91
2023-03-18T08:54:47.861Z,12.88
2023-03-18T08:57:14.367Z,13.93
2023-03-18T08:59:40.851Z,13.50
2023-03-18T09:02:10.843Z,13.67
2023-03-18T09:04:37.970Z,13.67
2023-03-18T09:07:04.497Z,14.30
2023-03-18T09:09:42.726Z,14.87
2023-03-18T09:12:11.839Z,15.12
2023-03-18T09:14:38.784Z,15.32
2023-03-18T09:17:06.411Z,14.10
2023-03-18T09:19:33.100Z,13.76
2023-03-18T09:21:59.657Z,13.65
2023-03-18T09:24:26.194Z,12.91
2023-03-18T09:26:53.020Z,12.56
2023-03-18T09:29:19.591Z,13.03
2023-03-18T09:31:46.972Z,12.88
2023-03-18T09:34:14.530Z,13.66
2023-03-18T09:36:42.142Z,13.73
2023-03-18T09:39:10.026Z,13.38
2023-03-18T09:41:52.650Z,12.92
2023-03-18T09:44:28.325Z,12.83
2023-03-18T09:46:57.776Z,12.71
2023-03-18T09:49:39.791Z,12.35
2023-03-18T09:52:12.156Z,12.23
2023-03-18T09:54:58.826Z,12.06
2023-03-18T09:57:29.767Z,12.00
2023-03-18T10:00:09.107Z,11.99
2023-03-18T10:02:46.897Z,12.10
2023-03-18T10:05:20.603Z,12.00
2023-03-18T10:07:51.698Z,12.09
2023-03-18T10:10:46.687Z,11.86
2023-03-18T10:13:19.430Z,11.78
2023-03-18T10:15:51.829Z,11.56
2023-03-18T10:18:24.285Z,11.84
2023-03-18T10:21:21.883Z,12.01
2023-03-18T10:23:57.784Z,12.01
2023-03-18T10:26:32.372Z,12.02
2023-03-18T10:29:17.614Z,12.19
2023-03-18T10:32:08.856Z,12.08
2023-03-18T10:34:38.320Z,11.87
2023-03-18T10:37:26.695Z,11.88
2023-03-18T10:39:53.790Z,11.85
2023-03-18T10:42:27.038Z,11.69
2023-03-18T10:44:56.718Z,11.77
2023-03-18T10:47:29.230Z,11.75
2023-03-18T10:50:23.742Z,11.56
2023-03-18T10:53:15.829Z,11.63
2023-03-18T10:56:09.621Z,11.68
2023-03-18T10:58:38.158Z,11.55
2023-03-18T11:01:07.745Z,11.43
2023-03-18T11:03:43.301Z,11.44
2023-03-18T11:06:41.731Z,11.30
2023-03-18T11:09:22.488Z,11.36
2023-03-18T11:11:57.224Z,11.28
2023-03-18T11:14:29.761Z,11.38
2023-03-18T11:17:02.741Z,11.44
2023-03-18T11:19:40.118Z,11.42
2023-03-18T11:22:10.233Z,11.48
2023-03-18T11:24:44.420Z,11.66
2023-03-18T11:27:16.782Z,11.82
2023-03-18T11:29:46.790Z,12.06
2023-03-18T11:32:34.072Z,12.22
2023-03-18T11:35:02.743Z,12.55
2023-03-18T11:37:33.885Z,12.44
2023-03-18T11:40:26.348Z,12.31
2023-03-18T11:42:58.664Z,12.30
2023-03-18T11:45:44.052Z,12.34
2023-03-18T11:48:17.751Z,12.46
2023-03-18T11:51:27.270Z,12.42
2023-03-18T11:53:58.259Z,12.37
2023-03-18T11:56:36.162Z,12.38
2023-03-18T11:59:12.719Z,12.59
2023-03-18T12:01:45.404Z,12.71
2023-03-18T12:04:27.059Z,12.70
2023-03-18T12:07:11.306Z,12.99
2023-03-18T12:09:38.489Z,13.05
2023-03-18T12:12:06.817Z,13.22
2023-03-18T12:15:03.487Z,13.56
2023-03-18T12:17:40.516Z,13.46
2023-03-18T12:20:25.672Z,13.48
2023-03-18T12:23:05.251Z,13.64
2023-03-18T12:25:44.331Z,13.78
2023-03-18T12:28:44.170Z,13.78
2023-03-18T12:31:16.472Z,14.21
2023-03-18T12:34:29.561Z,14.58
2023-03-18T12:37:15.432Z,14.42
2023-03-18T12:40:12.553Z,14.75
2023-03-18T12:42:50.187Z,14.51
2023-03-18T12:45:20.660Z,14.61
2023-03-18T12:47:50.661Z,14.86
2023-03-18T12:50:27.156Z,14.95
2023-03-18T12:53:00.984Z,15.23
2023-03-18T12:55:31.294Z,16.17
2023-03-18T12:58:01.667Z,16.49
2023-03-18T13:00:37.224Z,16.21
2023-03-18T13:03:32.029Z,16.16
2023-03-18T13:06:23.040Z,16.87
2023-03-18T13:09:28.234Z,15.91
2023-03-18T13:12:10.094Z,16.60
2023-03-18T13:14:56.357Z,16.98
2023-03-18T13:17:37.151Z,16.44
2023-03-18T13:20:04.862Z,16.62
2023-03-18T13:22:46.970Z,16.42
2023-03-18T13:25:35.470Z,16.21
2023-03-18T13:28:11.081Z,16.45
2023-03-18T13:30:54.046Z,16.76
2023-03-18T13:33:37.207Z,16.85
2023-03-18T13:36:28.680Z,16.81
2023-03-18T13:39:01.283Z,17.42
2023-03-18T13:42:05.715Z,17.66
2023-03-18T13:44:41.700Z,17.90
2023-03-18T13:47:09.311Z,18.08
2023-03-18T13:49:39.355Z,17.70
2023-03-18T13:52:23.219Z,17.94
2023-03-18T13:54:50.172Z,17.86
2023-03-18T13:57:24.526Z,18.23
2023-03-18T13:59:51.156Z,18.11
2023-03-18T14:02:34.000Z,17.36
2023-03-18T14:05:00.797Z,16.46
2023-03-18T14:07:28.521Z,15.99
2023-03-18T14:10:17.313Z,15.89
2023-03-18T14:12:47.438Z,15.61
2023-03-18T14:15:14.588Z,15.42
2023-03-18T14:17:49.368Z,15.55
2023-03-18T14:20:21.721Z,15.51
2023-03-18T14:22:54.684Z,15.46
2023-03-18T14:25:24.377Z,15.55
2023-03-18T14:28:06.597Z,15.59
2023-03-18T14:30:34.593Z,16.37
2023-03-18T14:33:03.333Z,16.55
2023-03-18T14:35:34.104Z,16.99
2023-03-18T14:38:04.278Z,17.15
2023-03-18T14:40:35.869Z,17.08
2023-03-18T14:43:08.286Z,17.45
2023-03-18T14:45:37.383Z,17.17
2023-03-18T14:48:29.885Z,16.66
2023-03-18T14:50:59.637Z,16.07
2023-03-18T14:53:38.552Z,15.84
2023-03-18T14:56:06.048Z,15.64
2023-03-18T14:58:34.227Z,15.69
2023-03-18T15:01:12.156Z,15.79
2023-03-18T15:03:40.552Z,15.67
2023-03-18T15:06:08.038Z,15.90
2023-03-18T15:08:47.755Z,16.12
2023-03-18T15:11:16.835Z,16.27
2023-03-18T15:13:43.529Z,16.25
2023-03-18T15:16:13.611Z,16.20
2023-03-18T15:18:40.415Z,16.09
2023-03-18T15:21:14.399Z,15.85
2023-03-18T15:23:45.983Z,15.67
2023-03-18T15:26:19.949Z,15.56
2023-03-18T15:28:50.332Z,15.39
2023-03-18T15:31:27.698Z,15.13
2023-03-18T15:34:07.666Z,15.11
2023-03-18T15:36:42.599Z,15.09
2023-03-18T15:39:32.775Z,15.21
2023-03-18T15:42:00.831Z,15.33
2023-03-18T15:44:32.493Z,15.75
2023-03-18T15:47:13.877Z,16.21
2023-03-18T15:49:54.573Z,15.92
2023-03-18T15:52:25.283Z,15.78
2023-03-18T15:54:52.123Z,15.56
2023-03-18T15:57:30.015Z,15.23
2023-03-18T15:59:56.558Z,15.21
2023-03-18T16:02:23.660Z,15.22
2023-03-18T16:04:50.467Z,15.15
2023-03-18T16:07:19.026Z,15.00
2023-03-18T16:09:45.831Z,14.97
2023-03-18T16:12:13.124Z,14.93
2023-03-18T16:14:42.059Z,14.90
2023-03-18T16:17:13.185Z,14.84
2023-03-18T16:19:39.955Z,14.78
2023-03-18T16:22:06.874Z,14.76
2023-03-18T16:24:33.441Z,14.85
2023-03-18T16:26:59.968Z,14.87
2023-03-18T16:29:33.933Z,14.81
2023-03-18T16:32:01.055Z,14.85
2023-03-18T16:34:27.904Z,14.76
2023-03-18T16:36:54.814Z,14.73
2023-03-18T16:39:27.351Z,14.70
2023-03-18T16:41:54.807Z,14.72
2023-03-18T16:44:23.389Z,14.68
2023-03-18T16:46:53.759Z,14.63
2023-03-18T16:49:23.318Z,14.58
2023-03-18T16:51:50.494Z,14.56
2023-03-18T16:54:22.800Z,14.58
2023-03-18T16:56:52.361Z,14.51
2023-03-18T16:59:19.496Z,14.52
2023-03-18T17:01:46.713Z,14.50
2023-03-18T17:04:28.573Z,14.47
2023-03-18T17:06:59.827Z,14.47
2023-03-18T17:09:26.908Z,14.52
2023-03-18T17:12:03.930Z,14.47
2023-03-18T17:14:38.027Z,14.44
2023-03-18T17:17:14.879Z,14.46
2023-03-18T17:19:41.441Z,14.39
2023-03-18T17:22:26.755Z,14.36
2023-03-18T17:24:53.955Z,14.37
2023-03-18T17:27:26.587Z,14.24
2023-03-18T17:29:53.648Z,14.16
2023-03-18T17:32:22.453Z,13.74
2023-03-18T17:34:51.119Z,13.26
2023-03-18T17:37:18.483Z,12.95
2023-03-18T17:39:45.247Z,12.64
2023-03-18T17:42:38.147Z,12.39
2023-03-18T17:45:23.292Z,12.30
2023-03-18T17:47:50.295Z,12.26
2023-03-18T17:50:18.533Z,12.26
2023-03-18T17:52:48.658Z,12.19
2023-03-18T17:55:22.438Z,11.99
2023-03-18T17:57:51.505Z,11.53
2023-03-18T18:00:21.396Z,11.14
2023-03-18T18:02:49.093Z,10.96
2023-03-18T18:05:17.525Z,10.87
2023-03-18T18:07:47.433Z,10.83
2023-03-18T18:10:16.481Z,10.84
2023-03-18T18:12:44.684Z,10.79
2023-03-18T18:15:28.914Z,10.78
2023-03-18T18:17:55.736Z,10.86
2023-03-18T18:20:22.677Z,10.89
2023-03-18T18:22:54.954Z,10.96
2023-03-18T18:25:24.450Z,11.01
2023-03-18T18:27:52.173Z,11.11
2023-03-18T18:30:22.108Z,11.17
2023-03-18T18:32:48.878Z,11.22
2023-03-18T18:35:20.559Z,11.27
2023-03-18T18:37:48.880Z,11.29
2023-03-18T18:40:16.894Z,11.42
2023-03-18T18:42:46.578Z,11.49
2023-03-18T18:45:18.178Z,11.54
2023-03-18T18:47:45.257Z,11.59
2023-03-18T18:50:17.854Z,11.59
2023-03-18T18:52:45.269Z,11.55
2023-03-18T18:55:11.846Z,11.52
2023-03-18T18:57:41.398Z,11.47
2023-03-18T19:00:19.187Z,11.44
2023-03-18T19:02:48.510Z,11.41
2023-03-18T19:05:16.434Z,11.38
2023-03-18T19:07:43.560Z,11.37
2023-03-18T19:10:15.234Z,11.33
2023-03-18T19:12:44.265Z,11.26
2023-03-18T19:15:13.415Z,11.25
2023-03-18T19:17:42.753Z,11.24
2023-03-18T19:20:41.990Z,11.21
2023-03-18T19:23:21.974Z,11.15
2023-03-18T19:25:48.702Z,11.14
2023-03-18T19:28:20.888Z,11.17
2023-03-18T19:30:48.293Z,11.15
2023-03-18T19:33:16.492Z,11.16
2023-03-18T19:35:43.844Z,11.19
2023-03-18T19:38:20.436Z,11.32
2023-03-18T19:40:48.859Z,11.28
2023-03-18T19:43:18.279Z,11.34
2023-03-18T19:45:47.911Z,11.29
2023-03-18T19:48:18.374Z,11.26
2023-03-18T19:50:46.237Z,11.26
2023-03-18T19:53:14.628Z,11.26
2023-03-18T19:55:59.616Z,11.20
2023-03-18T19:58:27.008Z,11.19
2023-03-18T20:00:55.214Z,11.09
2023-03-18T20:03:22.779Z,10.99
2023-03-18T20:05:50.341Z,10.97
2023-03-18T20:08:16.943Z,10.94
2023-03-18T20:10:43.892Z,10.96
2023-03-18T20:13:14.655Z,10.95
2023-03-18T20:15:41.831Z,10.94
2023-03-18T20:18:14.117Z,10.93
2023-03-18T20:20:43.500Z,10.95
2023-03-18T20:23:25.200Z,10.92
2023-03-18T20:25:53.638Z,10.95
2023-03-18T20:28:23.105Z,10.94
2023-03-18T20:30:52.499Z,10.97
2023-03-18T20:33:19.954Z,10.90
2023-03-18T20:35:47.790Z,10.87
2023-03-18T20:38:21.176Z,10.92
2023-03-18T20:40:47.899Z,10.85
2023-03-18T20:43:16.595Z,10.80
2023-03-18T20:45:43.657Z,10.78
2023-03-18T20:48:10.537Z,10.74
2023-03-18T20:50:37.370Z,10.73
2023-03-18T20:53:07.888Z,10.75
2023-03-18T20:55:38.600Z,10.72
2023-03-18T20:58:07.187Z,10.67
2023-03-18T21:00:33.870Z,10.61
2023-03-18T21:03:02.261Z,10.54
2023-03-18T21:05:28.842Z,10.41
2023-03-18T21:07:55.878Z,10.35
2023-03-18T21:10:24.721Z,10.29
2023-03-18T21:12:51.697Z,10.26
2023-03-18T21:15:26.499Z,10.21
2023-03-18T21:17:53.160Z,10.15
2023-03-18T21:20:23.834Z,10.12
2023-03-18T21:22:50.934Z,10.13
2023-03-18T21:25:19.563Z,10.11
2023-03-18T21:27:46.301Z,10.08
2023-03-18T21:30:14.195Z,10.08
2023-03-18T21:32:42.381Z,10.05
2023-03-18T21:35:19.565Z,10.03
2023-03-18T21:37:46.161Z,10.02
2023-03-18T21:40:17.622Z,9.95
2023-03-18T21:42:44.917Z,9.89
2023-03-18T21:45:15.658Z,9.84
2023-03-18T21:47:42.428Z,9.75
2023-03-18T21:50:21.886Z,9.72
2023-03-18T21:52:48.681Z,9.68
2023-03-18T21:55:15.645Z,9.65
2023-03-18T21:57:42.816Z,9.62
2023-03-18T22:00:16.373Z,9.63
2023-03-18T22:02:43.119Z,9.64
2023-03-18T22:05:17.680Z,9.64
2023-03-18T22:07:44.238Z,9.63
2023-03-18T22:10:15.061Z,9.63
2023-03-18T22:12:41.583Z,9.65
2023-03-18T22:15:29.504Z,9.65
2023-03-18T22:17:56.557Z,9.59
2023-03-18T22:20:23.283Z,9.58
2023-03-18T22:22:49.797Z,9.52
2023-03-18T22:25:25.807Z,9.51
2023-03-18T22:27:52.281Z,9.48
2023-03-18T22:30:18.866Z,9.48
2023-03-18T22:32:47.450Z,9.46
2023-03-18T22:35:19.817Z,9.46
2023-03-18T22:37:46.548Z,9.44
2023-03-18T22:40:28.535Z,9.45
2023-03-18T22:42:57.582Z,9.44
2023-03-18T22:45:25.506Z,9.43
2023-03-18T22:47:53.829Z,9.43
2023-03-18T22:50:20.488Z,9.41
2023-03-18T22:52:49.352Z,9.43
2023-03-18T22:55:26.416Z,9.45
2023-03-18T22:57:52.959Z,9.44
2023-03-18T23:00:21.106Z,9.44
2023-03-18T23:02:50.168Z,9.44
2023-03-18T23:05:19.300Z,9.43
2023-03-18T23:07:45.909Z,9.46
2023-03-18T23:10:12.690Z,9.47
2023-03-18T23:12:39.392Z,9.49
2023-03-18T23:15:07.394Z,9.46
2023-03-18T23:17:34.112Z,9.51
2023-03-18T23:20:00.657Z,9.49
2023-03-18T23:22:30.329Z,9.50
2023-03-18T23:24:57.158Z,9.53
2023-03-18T23:27:25.406Z,9.58
2023-03-18T23:29:52.366Z,9.59
2023-03-18T23:32:19.475Z,9.60
2023-03-18T23:34:47.096Z,9.63
2023-03-18T23:37:14.259Z,9.66
2023-03-18T23:39:43.190Z,9.66
2023-03-18T23:42:11.711Z,9.61
2023-03-18T23:44:38.712Z,9.60
2023-03-18T23:47:06.696Z,9.64
2023-03-18T23:49:33.721Z,9.64
2023-03-18T23:52:01.156Z,9.66
2023-03-18T23:54:27.937Z,9.71
2023-03-18T23:56:54.548Z,9.74
2023-03-18T23:59:21.524Z,9.72
